Time;durP1;ratioP1;P1;durP2;ratioP2;P2;SDS_P1;SDS_P2;PMS_P1;PMS_P2;Temp;Humidity;BMP_temperature;BMP_pressure;BME280_temperature;BME280_humidity;BME280_pressure;Samples;Min_cycle;Max_cycle;Signal;HPM_P1;HPM_P2
2022/07/14 00:01:21;;;;;;;2.10;1.00;;;24.40;51.00;;;;;;5092334;28;20091;-81
2022/07/14 00:03:47;;;;;;;2.60;1.17;;;24.40;51.10;;;;;;5078757;28;20036;-81
2022/07/14 00:06:13;;;;;;;1.52;1.13;;;24.40;51.20;;;;;;5078585;28;20048;-81
2022/07/14 00:12:06;;;;;;;1.73;0.85;;;24.30;51.30;;;;;;5078254;28;20481;-81
2022/07/14 00:14:32;;;;;;;1.58;1.10;;;24.20;51.20;;;;;;5061512;28;20031;-82
2022/07/14 00:16:57;;;;;;;3.53;1.30;;;24.20;51.30;;;;;;5061805;28;20044;-81
2022/07/14 00:19:23;;;;;;;1.83;1.10;;;24.20;51.40;;;;;;5061786;28;20075;-83
2022/07/14 00:21:49;;;;;;;1.98;1.15;;;24.10;51.40;;;;;;5080807;28;20028;-81
2022/07/14 00:24:16;;;;;;;1.13;0.85;;;24.10;51.50;;;;;;5100276;28;20028;-86
2022/07/14 00:26:42;;;;;;;1.73;1.13;;;24.10;51.50;;;;;;5074546;28;20028;-81
2022/07/14 00:33:21;;;;;;;2.92;1.08;;;24.00;51.70;;;;;;5079751;28;20043;-81
2022/07/14 00:35:47;;;;;;;1.75;0.82;;;23.90;51.70;;;;;;5079558;28;20376;-81
2022/07/14 00:38:13;;;;;;;2.92;1.25;;;23.80;51.60;;;;;;5044395;28;20032;-80
2022/07/14 00:40:39;;;;;;;2.78;1.20;;;23.80;51.70;;;;;;5044277;28;20598;-81
2022/07/14 00:43:05;;;;;;;2.15;0.98;;;23.80;51.80;;;;;;5044009;28;20033;-81
2022/07/14 00:45:31;;;;;;;1.60;0.80;;;23.70;51.80;;;;;;5084271;28;20047;-81
2022/07/14 00:47:57;;;;;;;2.83;1.17;;;23.70;51.80;;;;;;5058154;28;20041;-83
2022/07/14 00:50:22;;;;;;;3.15;1.20;;;23.70;51.90;;;;;;5078405;28;20028;-80
2022/07/14 00:52:50;;;;;;;3.80;1.48;;;23.60;51.90;;;;;;5077392;28;20045;-80
2022/07/14 00:55:17;;;;;;;2.05;1.17;;;23.60;52.00;;;;;;5077672;28;20036;-81
2022/07/14 00:57:44;;;;;;;2.70;1.10;;;23.60;52.00;;;;;;5077394;28;20035;-81
2022/07/14 01:00:13;;;;;;;1.92;0.98;;;23.50;52.00;;;;;;5094055;28;20043;-80
2022/07/14 01:02:41;;;;;;;3.15;1.23;;;23.50;52.10;;;;;;5076791;28;20090;-84
2022/07/14 01:05:07;;;;;;;3.05;1.30;;;23.50;52.10;;;;;;5074313;28;20085;-81
2022/07/14 01:07:34;;;;;;;3.20;1.23;;;23.40;52.10;;;;;;5075551;28;20036;-81
2022/07/14 01:10:00;;;;;;;3.00;1.30;;;23.40;52.20;;;;;;5073630;28;20068;-81
2022/07/14 01:12:25;;;;;;;2.58;1.42;;;23.30;52.20;;;;;;5091419;28;20016;-81
2022/07/14 01:14:54;;;;;;;1.60;0.80;;;23.30;52.30;;;;;;5058234;28;20491;-82
2022/07/14 01:17:20;;;;;;;2.65;1.40;;;23.30;52.30;;;;;;5057823;28;20096;-88
2022/07/14 01:19:48;;;;;;;2.33;1.20;;;23.30;52.40;;;;;;5074119;28;20086;-82
2022/07/14 01:22:14;;;;;;;2.53;1.30;;;23.20;52.40;;;;;;5056986;28;20472;-80
2022/07/14 01:24:40;;;;;;;2.42;1.23;;;23.20;52.40;;;;;;5083780;28;20400;-81
2022/07/14 01:27:06;;;;;;;1.27;0.95;;;23.20;52.40;;;;;;5040114;28;20538;-85
2022/07/14 01:29:32;;;;;;;2.97;1.10;;;23.10;52.50;;;;;;5065976;28;20079;-80
2022/07/14 01:31:58;;;;;;;3.15;1.27;;;23.10;52.50;;;;;;5072419;28;20473;-83
2022/07/14 01:34:24;;;;;;;3.00;1.20;;;23.10;52.60;;;;;;5055575;28;20120;-80
2022/07/14 01:36:52;;;;;;;0.90;0.90;;;23.10;52.60;;;;;;5074256;28;20120;-80
2022/07/14 01:39:18;;;;;;;2.05;1.10;;;23.10;52.60;;;;;;5057576;28;20036;-80
2022/07/14 01:41:45;;;;;;;3.15;1.13;;;23.00;52.60;;;;;;5074312;28;20025;-80
2022/07/14 01:44:11;;;;;;;1.80;0.95;;;23.00;52.70;;;;;;5073786;28;20028;-80
2022/07/14 01:46:37;;;;;;;2.90;1.30;;;22.90;52.70;;;;;;5055413;28;20140;-82
2022/07/14 01:49:05;;;;;;;2.03;1.10;;;22.90;52.70;;;;;;5056669;28;20032;-81
2022/07/14 01:51:30;;;;;;;1.88;0.95;;;22.90;52.80;;;;;;5040384;28;20033;-81
2022/07/14 01:53:57;;;;;;;1.50;0.88;;;22.90;52.80;;;;;;5016047;28;20489;-81
2022/07/14 01:56:22;;;;;;;2.67;1.00;;;22.80;52.80;;;;;;5074239;28;20052;-83
2022/07/14 01:58:50;;;;;;;2.25;1.02;;;22.80;52.90;;;;;;5073900;28;20033;-80
2022/07/14 02:05:11;;;;;;;1.65;1.00;;;22.70;53.10;;;;;;5073975;28;20039;-80
2022/07/14 02:07:37;;;;;;;1.92;1.00;;;22.60;52.80;;;;;;5056738;28;20044;-83
2022/07/14 02:14:04;;;;;;;2.08;1.00;;;22.60;53.20;;;;;;5071743;28;20035;-80
2022/07/14 02:17:07;;;;;;;2.67;1.15;;;22.50;53.00;;;;;;5037202;28;20033;-80
2022/07/14 02:19:35;;;;;;;1.92;1.10;;;22.50;53.30;;;;;;5054389;28;20131;-80
2022/07/14 02:25:54;;;;;;;1.83;1.02;;;22.40;53.30;;;;;;5054533;28;20125;-80
2022/07/14 02:28:20;;;;;;;2.55;1.08;;;22.40;53.20;;;;;;5036794;28;20124;-79
2022/07/14 02:34:40;;;;;;;2.78;1.10;;;22.30;53.40;;;;;;5054615;28;20039;-80
2022/07/14 02:41:01;;;;;;;1.63;0.98;;;22.20;53.50;;;;;;5053493;28;20539;-81
2022/07/14 02:51:22;;;;;;;2.05;1.20;;;22.10;53.60;;;;;;5053227;28;20039;-82
2022/07/14 03:29:39;;;;;;;1.33;0.90;;;21.50;54.20;;;;;;5052960;28;20135;-82
2022/07/14 03:56:41;;;;;;;2.50;1.02;;;21.10;54.40;;;;;;5032780;28;20474;-82
2022/07/14 03:59:07;;;;;;;2.10;1.05;;;21.10;54.30;;;;;;5016579;28;20363;-82
2022/07/14 04:01:33;;;;;;;1.42;1.10;;;21.00;54.50;;;;;;4983505;28;20079;-82
2022/07/14 04:16:37;;;;;;;0.80;0.80;;;20.90;54.60;;;;;;5052994;28;20072;-82
2022/07/14 04:23:21;;;;;;;1.52;1.10;;;20.90;54.80;;;;;;5053075;28;20556;-82
2022/07/14 04:25:48;;;;;;;1.55;1.00;;;20.90;54.80;;;;;;5051877;28;20138;-83
2022/07/14 04:28:15;;;;;;;1.60;0.98;;;20.90;54.80;;;;;;5018991;28;20031;-83
2022/07/14 04:30:41;;;;;;;1.30;1.00;;;20.80;54.90;;;;;;5019104;28;20113;-82
2022/07/14 04:33:09;;;;;;;1.77;1.10;;;20.80;54.90;;;;;;5035326;28;20474;-83
2022/07/14 04:35:39;;;;;;;1.98;1.05;;;20.80;54.90;;;;;;5018904;28;20088;-82
2022/07/14 04:38:05;;;;;;;2.42;1.10;;;20.80;54.90;;;;;;5049021;28;20112;-83
2022/07/14 04:40:48;;;;;;;1.52;1.00;;;20.80;54.90;;;;;;5043421;28;20036;-83
2022/07/14 04:43:17;;;;;;;1.58;0.95;;;20.70;55.00;;;;;;5072180;28;20036;-82
2022/07/14 04:52:02;;;;;;;2.47;1.23;;;20.70;54.90;;;;;;5075605;28;20039;-82
2022/07/14 04:54:33;;;;;;;2.35;1.02;;;20.70;55.00;;;;;;5055078;28;20057;-82
2022/07/14 04:57:12;;;;;;;2.00;0.98;;;20.70;55.00;;;;;;5075083;28;20044;-82
2022/07/14 04:59:44;;;;;;;1.23;0.90;;;20.60;55.00;;;;;;5060059;28;20070;-82
2022/07/14 05:02:14;;;;;;;1.30;0.95;;;20.60;55.10;;;;;;5058361;28;20163;-82
2022/07/14 05:04:41;;;;;;;2.22;1.30;;;20.60;55.10;;;;;;5092284;28;20480;-82
2022/07/14 05:07:07;;;;;;;1.58;1.00;;;20.60;55.10;;;;;;5091874;28;20024;-82
2022/07/14 05:09:36;;;;;;;2.67;1.13;;;20.60;55.10;;;;;;5042753;28;20033;-82
2022/07/14 05:12:04;;;;;;;2.08;1.05;;;20.60;55.10;;;;;;5078193;28;20036;-83
2022/07/14 05:14:31;;;;;;;2.28;1.05;;;20.60;55.20;;;;;;5057750;28;20469;-81
2022/07/14 05:17:00;;;;;;;3.08;1.67;;;20.60;55.20;;;;;;5067012;28;20085;-80
2022/07/14 05:19:27;;;;;;;2.17;1.02;;;20.50;55.10;;;;;;5058736;28;20032;-82
2022/07/14 05:21:53;;;;;;;1.10;0.90;;;20.50;55.10;;;;;;5046043;28;20031;-81
2022/07/14 05:24:19;;;;;;;1.38;0.90;;;20.50;55.10;;;;;;5059320;28;20032;-81
2022/07/14 05:26:46;;;;;;;1.13;0.80;;;20.50;55.20;;;;;;5029903;28;20036;-82
2022/07/14 05:29:11;;;;;;;2.50;1.20;;;20.50;55.20;;;;;;5068617;28;20031;-81
2022/07/14 05:31:39;;;;;;;1.50;1.02;;;20.50;55.20;;;;;;5080840;28;20090;-83
2022/07/14 05:34:06;;;;;;;1.45;0.90;;;20.50;55.30;;;;;;5055566;28;20036;-81
2022/07/14 05:36:32;;;;;;;3.25;0.98;;;20.50;55.30;;;;;;5055303;28;20484;-81
2022/07/14 05:38:58;;;;;;;1.98;1.02;;;20.50;55.30;;;;;;5068135;28;20116;-80
2022/07/14 05:41:24;;;;;;;1.85;1.20;;;20.50;55.30;;;;;;5038936;28;20119;-82
2022/07/14 05:43:50;;;;;;;2.38;1.10;;;20.50;55.30;;;;;;5039237;28;20029;-82
2022/07/14 05:46:16;;;;;;;1.80;0.90;;;20.40;55.30;;;;;;5034157;28;20047;-82
2022/07/14 05:48:43;;;;;;;2.22;1.13;;;20.40;55.30;;;;;;5036174;28;20026;-81
2022/07/14 05:51:14;;;;;;;1.52;0.90;;;20.50;55.40;;;;;;5072467;28;20064;-80
2022/07/14 05:53:44;;;;;;;2.40;1.10;;;20.40;55.30;;;;;;5072353;28;20123;-83
2022/07/14 05:56:12;;;;;;;2.55;1.08;;;20.40;55.30;;;;;;5073390;28;20056;-81
2022/07/14 05:58:39;;;;;;;1.42;0.93;;;20.40;55.30;;;;;;5071353;28;20028;-82
2022/07/14 06:01:07;;;;;;;1.48;1.00;;;20.40;55.30;;;;;;5053644;28;20104;-82
2022/07/14 06:03:32;;;;;;;2.25;1.02;;;20.40;55.40;;;;;;5055631;28;20100;-82
2022/07/14 06:06:06;;;;;;;2.33;1.05;;;20.40;55.40;;;;;;5051057;28;20032;-81
2022/07/14 06:08:33;;;;;;;2.63;1.15;;;20.40;55.50;;;;;;5064987;28;20099;-81
2022/07/14 06:10:59;;;;;;;2.40;1.00;;;20.40;55.40;;;;;;5055305;28;20017;-79
2022/07/14 06:13:29;;;;;;;2.08;1.02;;;20.40;55.40;;;;;;5057515;28;20481;-80
2022/07/14 06:15:59;;;;;;;1.63;0.98;;;20.40;55.40;;;;;;5070272;28;20031;-80
2022/07/14 06:18:26;;;;;;;2.05;1.05;;;20.40;55.40;;;;;;5073146;28;20030;-80
2022/07/14 06:20:53;;;;;;;2.67;1.08;;;20.40;55.40;;;;;;5054797;28;20067;-81
2022/07/14 06:23:19;;;;;;;2.10;0.90;;;20.40;55.50;;;;;;5026079;28;20024;-80
2022/07/14 06:25:51;;;;;;;2.67;1.02;;;20.40;55.50;;;;;;5054931;28;20503;-81
2022/07/14 06:28:22;;;;;;;2.15;0.90;;;20.40;55.50;;;;;;5055206;28;20161;-80
2022/07/14 06:30:49;;;;;;;1.52;0.95;;;20.40;55.50;;;;;;5064298;28;20081;-81
2022/07/14 06:33:16;;;;;;;1.77;1.10;;;20.40;55.50;;;;;;5054185;28;20165;-82
2022/07/14 06:35:43;;;;;;;1.88;1.00;;;20.40;55.50;;;;;;5052104;28;20063;-81
2022/07/14 06:38:09;;;;;;;1.58;0.93;;;20.40;55.50;;;;;;5046405;28;20035;-78
2022/07/14 06:40:38;;;;;;;2.40;1.10;;;20.40;55.50;;;;;;5054899;28;20028;-83
2022/07/14 06:43:04;;;;;;;1.42;1.00;;;20.40;55.60;;;;;;5053620;28;20074;-80
2022/07/14 06:45:50;;;;;;;2.78;1.10;;;20.40;55.50;;;;;;5055687;28;20458;-80
2022/07/14 06:48:17;;;;;;;1.48;1.10;;;20.40;55.50;;;;;;5066122;28;20063;-79
2022/07/14 06:50:44;;;;;;;1.67;1.15;;;20.40;55.50;;;;;;5054193;28;20080;-82
2022/07/14 06:53:10;;;;;;;2.30;1.20;;;20.40;55.60;;;;;;5056977;28;20040;-79
2022/07/14 06:55:37;;;;;;;3.13;1.52;;;20.40;55.50;;;;;;5071127;28;20485;-79
2022/07/14 06:58:03;;;;;;;2.38;1.00;;;20.40;55.60;;;;;;5058423;28;20115;-80
2022/07/14 07:00:30;;;;;;;2.58;1.23;;;20.50;55.60;;;;;;5074304;28;20535;-80
2022/07/14 07:02:56;;;;;;;2.40;1.20;;;20.50;55.60;;;;;;5064779;28;20020;-82
2022/07/14 07:08:06;;;;;;;2.73;1.07;;;20.50;55.60;;;;;;5064688;28;20036;-82
2022/07/14 07:10:32;;;;;;;2.08;1.05;;;20.50;55.60;;;;;;5066921;28;20392;-82
2022/07/14 07:12:59;;;;;;;1.45;0.98;;;20.50;55.60;;;;;;5053585;28;20023;-81
2022/07/14 07:15:25;;;;;;;1.75;0.98;;;20.50;55.60;;;;;;5066317;28;20043;-82
2022/07/14 07:17:51;;;;;;;2.03;1.05;;;20.50;55.60;;;;;;5065559;28;20400;-82
2022/07/14 07:20:17;;;;;;;1.73;0.95;;;20.50;55.70;;;;;;5054355;28;20028;-81
2022/07/14 07:22:43;;;;;;;2.42;1.25;;;20.50;55.60;;;;;;5054178;28;20528;-82
2022/07/14 07:25:09;;;;;;;2.42;1.05;;;20.50;55.70;;;;;;5041638;28;20419;-82
2022/07/14 07:27:35;;;;;;;2.33;1.10;;;20.50;55.70;;;;;;5056843;28;20032;-83
2022/07/14 07:30:02;;;;;;;2.00;1.10;;;20.60;55.70;;;;;;5065561;28;20070;-83
2022/07/14 07:32:28;;;;;;;1.88;0.90;;;20.60;55.70;;;;;;5067568;28;20024;-81
2022/07/14 07:34:54;;;;;;;1.90;1.10;;;20.60;55.70;;;;;;5070547;28;20025;-83
2022/07/14 07:37:21;;;;;;;2.88;1.27;;;20.60;55.70;;;;;;5065216;28;20093;-82
2022/07/14 07:39:47;;;;;;;1.45;0.98;;;20.60;55.70;;;;;;5038035;28;20119;-85
2022/07/14 07:42:13;;;;;;;2.70;1.20;;;20.60;55.70;;;;;;5070739;28;20087;-81
2022/07/14 07:44:39;;;;;;;1.10;1.00;;;20.70;55.70;;;;;;5057120;28;20027;-82
2022/07/14 07:47:05;;;;;;;3.20;0.90;;;20.70;55.70;;;;;;5072578;28;20393;-82
2022/07/14 07:49:31;;;;;;;2.30;1.00;;;20.80;55.60;;;;;;5069756;28;20028;-83
2022/07/14 07:52:01;;;;;;;1.52;1.25;;;20.80;55.60;;;;;;5055420;28;20032;-82
2022/07/14 07:54:28;;;;;;;1.65;0.90;;;20.80;55.50;;;;;;5056788;28;20048;-83
2022/07/14 07:56:54;;;;;;;2.70;1.00;;;20.90;55.40;;;;;;5069621;28;20035;-81
2022/07/14 07:59:21;;;;;;;1.42;0.90;;;20.90;55.40;;;;;;5056289;28;20444;-84
2022/07/14 08:01:46;;;;;;;1.77;1.00;;;21.00;55.40;;;;;;5069241;28;20028;-81
2022/07/14 08:04:14;;;;;;;1.42;1.00;;;21.00;55.30;;;;;;5068914;28;20657;-83
2022/07/14 08:06:40;;;;;;;1.42;1.00;;;21.10;55.20;;;;;;5070027;28;20430;-79
2022/07/14 08:09:11;;;;;;;1.77;1.00;;;21.10;55.10;;;;;;5068096;28;20032;-79
2022/07/14 08:11:40;;;;;;;2.67;1.20;;;21.20;55.10;;;;;;5052804;28;20085;-80
2022/07/14 08:14:47;;;;;;;2.47;1.00;;;21.30;55.80;;;;;;5071772;28;20067;-80
2022/07/14 08:16:54;;;;;;;2.22;1.20;;;21.30;55.00;;;;;;5064584;28;20059;-80
2022/07/14 08:19:20;;;;;;;2.35;1.08;;;21.40;55.00;;;;;;5065457;28;20466;-81
2022/07/14 08:21:46;;;;;;;2.03;1.00;;;21.50;55.00;;;;;;5068914;28;20029;-79
2022/07/14 08:24:12;;;;;;;1.55;0.85;;;21.60;55.00;;;;;;5055791;28;20036;-87
2022/07/14 08:26:39;;;;;;;2.38;1.00;;;21.60;54.80;;;;;;5061125;28;20032;-80
2022/07/14 08:29:06;;;;;;;1.40;0.80;;;21.70;54.80;;;;;;5057071;28;20170;-81
2022/07/14 08:31:32;;;;;;;2.38;0.90;;;21.80;54.70;;;;;;5074361;28;20059;-82
2022/07/14 08:33:57;;;;;;;1.33;0.80;;;21.80;54.60;;;;;;5073677;28;20017;-82
2022/07/14 08:36:23;;;;;;;1.88;1.00;;;21.90;54.60;;;;;;5056960;28;20469;-82
2022/07/14 08:38:49;;;;;;;1.02;0.85;;;22.00;54.50;;;;;;5069565;28;20025;-79
2022/07/14 08:41:14;;;;;;;1.55;0.80;;;22.00;54.40;;;;;;5074791;28;20040;-82
2022/07/14 08:43:41;;;;;;;1.20;0.80;;;22.20;54.40;;;;;;5039425;28;20046;-81
2022/07/14 08:46:06;;;;;;;1.02;0.80;;;22.20;54.30;;;;;;5075077;28;20020;-80
2022/07/14 08:48:33;;;;;;;1.88;1.10;;;22.30;54.20;;;;;;5069638;28;20086;-78
2022/07/14 08:51:00;;;;;;;2.58;1.05;;;22.40;54.10;;;;;;5057459;28;20384;-82
2022/07/14 08:53:27;;;;;;;1.63;1.02;;;22.50;54.10;;;;;;5073735;28;20461;-82
2022/07/14 08:55:53;;;;;;;1.55;0.75;;;22.60;54.00;;;;;;5073455;28;20440;-83
2022/07/14 08:58:19;;;;;;;1.80;0.90;;;22.60;53.90;;;;;;5071841;28;20059;-80
2022/07/14 09:00:44;;;;;;;1.25;0.73;;;22.70;53.80;;;;;;5066067;28;20449;-82
2022/07/14 09:03:10;;;;;;;1.27;0.90;;;22.80;53.70;;;;;;5055250;28;20041;-80
2022/07/14 09:05:46;;;;;;;1.73;1.05;;;22.90;53.60;;;;;;5060867;28;20024;-86
2022/07/14 09:08:13;;;;;;;1.25;0.80;;;23.00;53.60;;;;;;5077188;28;20024;-87
2022/07/14 09:10:42;;;;;;;2.85;1.00;;;23.10;53.50;;;;;;5051617;28;20346;-88
2022/07/14 09:13:19;;;;;;;1.13;0.90;;;23.20;53.40;;;;;;5074298;28;20020;-87
2022/07/14 09:15:49;;;;;;;1.48;0.70;;;23.20;53.40;;;;;;5066648;28;20055;-87
2022/07/14 09:18:26;;;;;;;2.10;0.90;;;23.30;53.20;;;;;;5053964;28;20028;-86
2022/07/14 09:20:54;;;;;;;0.80;0.75;;;23.40;53.10;;;;;;5051373;28;20534;-84
2022/07/14 09:23:28;;;;;;;1.25;0.88;;;23.50;53.00;;;;;;5072418;28;20040;-86
2022/07/14 09:26:16;;;;;;;2.25;0.82;;;23.60;53.00;;;;;;5062656;28;20032;-89
2022/07/14 09:28:44;;;;;;;0.98;0.70;;;23.70;52.90;;;;;;5062629;28;20089;-88
2022/07/14 09:31:25;;;;;;;0.65;0.65;;;23.80;52.80;;;;;;5073162;28;20487;-86
2022/07/14 09:33:59;;;;;;;1.02;0.70;;;23.90;52.80;;;;;;5068657;28;20039;-90
2022/07/14 09:36:32;;;;;;;1.83;0.80;;;24.00;52.70;;;;;;5071908;28;20071;-93
2022/07/14 09:39:09;;;;;;;1.15;0.70;;;24.10;52.60;;;;;;5077548;28;20032;-89
2022/07/14 09:41:59;;;;;;;1.73;0.80;;;24.20;53.30;;;;;;5058182;28;20093;-90
2022/07/14 09:44:31;;;;;;;1.35;0.80;;;24.30;52.60;;;;;;5072652;28;20150;-88
2022/07/14 09:47:00;;;;;;;2.47;0.80;;;24.40;52.40;;;;;;5074623;28;20540;-89
2022/07/14 09:49:28;;;;;;;1.48;0.82;;;24.50;52.40;;;;;;5056570;28;20029;-83
2022/07/14 09:51:56;;;;;;;2.35;0.98;;;24.60;52.30;;;;;;5070529;28;20028;-83
2022/07/14 09:54:42;;;;;;;1.73;0.93;;;24.70;52.30;;;;;;5069478;28;20071;-82
2022/07/14 09:57:18;;;;;;;1.48;0.90;;;24.80;52.30;;;;;;5071047;28;20060;-82
2022/07/14 09:59:56;;;;;;;0.85;0.70;;;24.90;52.10;;;;;;5056584;28;20025;-82
2022/07/14 10:02:29;;;;;;;1.75;0.82;;;25.00;52.00;;;;;;5082926;28;20519;-81
2022/07/14 10:05:02;;;;;;;1.00;0.90;;;25.10;51.90;;;;;;5068596;28;20491;-83
2022/07/14 10:07:38;;;;;;;0.95;0.80;;;25.20;51.90;;;;;;5082346;28;20476;-83
2022/07/14 10:10:15;;;;;;;1.27;0.85;;;25.30;51.90;;;;;;5075863;28;20020;-83
2022/07/14 10:12:42;;;;;;;1.08;0.70;;;25.30;51.70;;;;;;5072843;28;20075;-88
2022/07/14 10:15:10;;;;;;;1.13;0.75;;;25.40;51.80;;;;;;5076870;28;20023;-87
2022/07/14 10:17:39;;;;;;;1.05;0.60;;;25.60;52.10;;;;;;5059058;28;20369;-88
2022/07/14 10:20:06;;;;;;;1.35;0.82;;;25.70;51.90;;;;;;5054336;28;20020;-88
2022/07/14 10:22:34;;;;;;;0.63;0.52;;;25.80;51.80;;;;;;5073083;28;20028;-89
2022/07/14 10:25:03;;;;;;;2.78;0.80;;;25.90;51.60;;;;;;5052207;28;20128;-89
2022/07/14 10:27:29;;;;;;;0.65;0.60;;;26.00;51.60;;;;;;5073197;28;20062;-91
2022/07/14 10:29:56;;;;;;;1.50;0.80;;;26.00;51.50;;;;;;5056326;28;20025;-89
2022/07/14 10:32:59;;;;;;;1.55;0.80;;;26.10;51.40;;;;;;5056290;28;20029;-90
2022/07/14 10:35:52;;;;;;;0.52;0.52;;;26.20;51.30;;;;;;5072925;28;20043;-90
2022/07/14 10:38:36;;;;;;;0.68;0.68;;;26.30;51.10;;;;;;5067711;28;20063;-88
2022/07/14 10:41:39;;;;;;;0.75;0.50;;;26.40;51.10;;;;;;5068569;28;20478;-88
2022/07/14 10:44:15;;;;;;;1.52;0.68;;;26.50;51.20;;;;;;5043709;28;20047;-90
2022/07/14 10:46:45;;;;;;;0.70;0.63;;;26.50;50.90;;;;;;5062338;28;20476;-91
2022/07/14 10:49:14;;;;;;;0.90;0.57;;;26.60;50.90;;;;;;5072550;28;20035;-88
2022/07/14 10:51:45;;;;;;;0.50;0.50;;;26.70;51.00;;;;;;5071884;28;20090;-89
2022/07/14 10:54:22;;;;;;;0.80;0.70;;;26.80;50.70;;;;;;5072358;28;20064;-87
2022/07/14 10:56:51;;;;;;;2.25;0.80;;;26.90;50.60;;;;;;5072912;28;20036;-91
2022/07/14 10:59:26;;;;;;;0.70;0.50;;;27.00;50.50;;;;;;5065747;28;20492;-93
2022/07/14 11:02:23;;;;;;;0.93;0.65;;;27.10;50.50;;;;;;5072403;28;20025;-94
2022/07/14 11:05:03;;;;;;;1.23;0.63;;;27.20;50.40;;;;;;5078006;28;20488;-81
2022/07/14 11:07:35;;;;;;;1.38;0.80;;;27.30;50.30;;;;;;5054631;28;20035;-88
2022/07/14 11:10:04;;;;;;;1.85;0.88;;;27.30;50.10;;;;;;5071206;28;20020;-82
2022/07/14 11:12:30;;;;;;;1.00;0.68;;;27.40;50.20;;;;;;5068061;28;20093;-81
2022/07/14 11:14:56;;;;;;;0.88;0.60;;;27.50;50.10;;;;;;5068385;28;20461;-81
2022/07/14 11:17:48;;;;;;;1.23;0.68;;;27.60;50.10;;;;;;5054337;28;20049;-83
2022/07/14 11:20:14;;;;;;;2.00;0.88;;;27.60;50.10;;;;;;5058301;28;20043;-82
2022/07/14 11:22:41;;;;;;;1.80;0.70;;;27.70;50.10;;;;;;5054274;28;20059;-83
2022/07/14 11:25:07;;;;;;;1.73;1.00;;;27.70;50.00;;;;;;5050594;28;20498;-85
2022/07/14 11:27:48;;;;;;;0.95;0.75;;;27.80;49.90;;;;;;5056039;28;20046;-83
2022/07/14 11:30:19;;;;;;;1.65;0.90;;;27.90;49.70;;;;;;5058661;28;20024;-86
2022/07/14 11:32:46;;;;;;;0.98;0.73;;;27.90;49.40;;;;;;5071546;28;20028;-83
2022/07/14 11:38:21;;;;;;;0.80;0.70;;;28.00;49.20;;;;;;5063625;28;20349;-84
2022/07/14 11:40:49;;;;;;;2.33;0.85;;;28.10;49.20;;;;;;5049207;28;20036;-84
2022/07/14 11:43:44;;;;;;;0.88;0.65;;;28.10;48.90;;;;;;5059801;28;20482;-84
2022/07/14 11:46:15;;;;;;;1.00;0.70;;;28.20;48.80;;;;;;5055922;28;20519;-83
2022/07/14 11:48:52;;;;;;;0.90;0.60;;;28.20;48.50;;;;;;5075334;28;20057;-83
2022/07/14 11:51:27;;;;;;;1.65;0.88;;;28.20;48.40;;;;;;5071332;28;20107;-85
2022/07/14 11:53:55;;;;;;;1.42;0.80;;;28.30;48.30;;;;;;5088114;28;20040;-84
2022/07/14 11:56:23;;;;;;;1.13;0.65;;;28.30;48.20;;;;;;5070514;28;20044;-84
2022/07/14 11:58:50;;;;;;;1.40;0.80;;;28.30;48.10;;;;;;5071385;28;20021;-83
2022/07/14 12:01:16;;;;;;;0.70;0.70;;;28.40;48.10;;;;;;5055045;28;20578;-85
2022/07/14 12:03:43;;;;;;;1.27;0.75;;;28.40;48.10;;;;;;5071363;28;20117;-84
2022/07/14 12:06:10;;;;;;;1.30;0.80;;;28.40;47.90;;;;;;5071906;28;20044;-83
2022/07/14 12:08:40;;;;;;;1.00;0.65;;;28.40;47.90;;;;;;5074107;28;20020;-83
2022/07/14 12:11:13;;;;;;;0.60;0.60;;;28.50;47.90;;;;;;5070917;28;20024;-85
2022/07/14 12:13:51;;;;;;;2.13;0.90;;;28.50;47.90;;;;;;5056014;28;20032;-84
2022/07/14 12:16:18;;;;;;;2.60;0.98;;;28.50;48.00;;;;;;5071075;28;20118;-84
2022/07/14 12:18:44;;;;;;;1.08;0.70;;;28.60;48.00;;;;;;5086120;28;20067;-84
2022/07/14 12:21:10;;;;;;;0.73;0.60;;;28.60;48.00;;;;;;5053472;28;20464;-84
2022/07/14 12:23:50;;;;;;;1.88;0.60;;;28.60;48.10;;;;;;5053240;28;20071;-84
2022/07/14 12:26:18;;;;;;;1.30;0.63;;;28.60;48.10;;;;;;5073090;28;20028;-83
2022/07/14 12:28:52;;;;;;;2.05;0.90;;;28.70;47.90;;;;;;5071096;28;20480;-85
2022/07/14 12:31:19;;;;;;;0.60;0.60;;;28.70;47.90;;;;;;5065600;28;20047;-83
2022/07/14 12:33:46;;;;;;;1.63;0.77;;;28.70;47.80;;;;;;5053935;28;20025;-83
2022/07/14 12:36:23;;;;;;;1.20;0.80;;;28.70;47.80;;;;;;5054048;28;20159;-83
2022/07/14 12:38:49;;;;;;;1.20;0.88;;;28.80;47.90;;;;;;5071578;28;20021;-84
2022/07/14 12:41:20;;;;;;;1.20;0.88;;;28.80;47.80;;;;;;5050728;28;20473;-86
2022/07/14 12:43:46;;;;;;;0.85;0.77;;;28.80;47.80;;;;;;5069103;28;20039;-83
2022/07/14 12:46:20;;;;;;;0.73;0.73;;;28.80;47.70;;;;;;5054393;28;20495;-88
2022/07/14 12:48:49;;;;;;;1.27;0.63;;;28.80;47.30;;;;;;5079596;28;20461;-84
2022/07/14 12:51:25;;;;;;;2.60;0.95;;;28.80;47.20;;;;;;5066475;28;20043;-83
2022/07/14 12:54:00;;;;;;;1.92;1.00;;;28.90;47.20;;;;;;5070623;28;20171;-86
2022/07/14 12:56:32;;;;;;;1.25;0.77;;;28.90;47.10;;;;;;5063523;28;20043;-85
2022/07/14 12:58:59;;;;;;;1.25;0.70;;;28.90;47.00;;;;;;5074162;28;20193;-84
2022/07/14 13:01:26;;;;;;;0.80;0.70;;;28.90;47.00;;;;;;5056038;28;20082;-83
2022/07/14 13:03:56;;;;;;;1.55;1.05;;;28.90;47.00;;;;;;5065499;28;20047;-83
2022/07/14 13:06:22;;;;;;;1.42;0.70;;;28.90;47.00;;;;;;5077683;28;20465;-83
2022/07/14 13:08:50;;;;;;;1.25;0.77;;;28.90;47.10;;;;;;5061293;28;20034;-82
2022/07/14 13:11:15;;;;;;;0.57;0.57;;;28.90;47.00;;;;;;5059623;28;20028;-85
2022/07/14 13:13:45;;;;;;;1.42;0.82;;;28.90;47.00;;;;;;5053901;28;20539;-82
2022/07/14 13:16:24;;;;;;;1.55;0.70;;;28.90;46.80;;;;;;5073850;28;20068;-87
2022/07/14 13:19:16;;;;;;;1.27;0.70;;;28.90;46.60;;;;;;5062451;28;20062;-82
2022/07/14 13:21:54;;;;;;;1.50;0.70;;;28.80;46.30;;;;;;5074130;28;20025;-83
2022/07/14 13:24:21;;;;;;;0.70;0.70;;;28.80;46.20;;;;;;5073505;28;20485;-83
2022/07/14 13:27:02;;;;;;;1.63;0.82;;;28.90;46.30;;;;;;5056689;28;20028;-82
2022/07/14 13:29:33;;;;;;;0.82;0.77;;;28.80;46.30;;;;;;5060526;28;20186;-82
2022/07/14 13:31:59;;;;;;;1.25;0.80;;;28.80;46.50;;;;;;5073901;28;20024;-82
2022/07/14 13:34:26;;;;;;;0.93;0.93;;;28.80;46.50;;;;;;5040261;28;20520;-83
2022/07/14 13:36:54;;;;;;;0.85;0.73;;;28.80;46.60;;;;;;5073860;28;20039;-83
2022/07/14 13:39:20;;;;;;;1.52;0.90;;;28.80;46.50;;;;;;5073577;28;20028;-82
2022/07/14 13:41:46;;;;;;;1.00;0.80;;;28.80;47.10;;;;;;5087850;28;20032;-82
2022/07/14 13:44:12;;;;;;;1.42;0.77;;;28.80;46.40;;;;;;5062330;28;20389;-83
2022/07/14 13:46:38;;;;;;;1.98;0.93;;;28.80;46.50;;;;;;5040120;28;20036;-81
2022/07/14 13:49:04;;;;;;;1.27;0.77;;;28.80;46.50;;;;;;5056758;28;20024;-81
2022/07/14 13:54:14;;;;;;;0.82;0.77;;;28.70;46.30;;;;;;5067052;28;20082;-83
2022/07/14 13:56:41;;;;;;;0.65;0.65;;;28.70;45.70;;;;;;5065849;28;20437;-82
2022/07/14 13:59:12;;;;;;;1.20;0.65;;;28.70;45.40;;;;;;5056466;28;20039;-81
2022/07/14 14:01:38;;;;;;;2.25;0.88;;;28.70;45.40;;;;;;5056797;28;20028;-81
2022/07/14 14:04:05;;;;;;;1.50;0.70;;;28.70;45.50;;;;;;5056916;28;20033;-81
2022/07/14 14:06:31;;;;;;;1.95;0.80;;;28.70;45.60;;;;;;5073524;28;20039;-82
2022/07/14 14:08:58;;;;;;;0.60;0.60;;;28.80;45.70;;;;;;5056188;28;20485;-87
2022/07/14 14:11:24;;;;;;;1.67;0.75;;;28.70;45.60;;;;;;5055809;28;20075;-82
2022/07/14 14:13:49;;;;;;;1.15;0.70;;;28.70;45.70;;;;;;5072094;28;20060;-82
2022/07/14 14:16:36;;;;;;;1.25;0.70;;;28.70;45.80;;;;;;5059192;28;20217;-82
2022/07/14 14:19:02;;;;;;;0.77;0.70;;;28.70;45.90;;;;;;5073018;28;20090;-82
2022/07/14 14:21:28;;;;;;;2.25;0.98;;;28.70;45.90;;;;;;5075882;28;20020;-81
2022/07/14 14:23:55;;;;;;;0.80;0.63;;;28.80;46.00;;;;;;5063151;28;20116;-82
2022/07/14 14:26:22;;;;;;;0.85;0.73;;;28.70;46.00;;;;;;5039408;28;20039;-81
2022/07/14 14:28:48;;;;;;;2.20;0.90;;;28.70;46.10;;;;;;5069488;28;20477;-84
2022/07/14 14:31:14;;;;;;;1.50;0.80;;;28.70;46.10;;;;;;5072192;28;20029;-85
2022/07/14 14:33:40;;;;;;;1.42;0.80;;;28.70;46.10;;;;;;5072711;28;20226;-81
2022/07/14 14:36:05;;;;;;;0.60;0.60;;;28.70;46.10;;;;;;5072040;28;20036;-81
2022/07/14 14:38:34;;;;;;;1.15;0.80;;;28.70;46.10;;;;;;5056153;28;20468;-82
2022/07/14 14:40:59;;;;;;;0.85;0.60;;;28.70;46.10;;;;;;5055978;28;20460;-82
2022/07/14 14:43:25;;;;;;;1.45;0.75;;;28.80;46.10;;;;;;5075134;28;20028;-82
2022/07/14 14:45:51;;;;;;;1.40;0.80;;;28.70;46.00;;;;;;5058373;28;20093;-83
2022/07/14 14:48:19;;;;;;;0.90;0.80;;;28.80;46.10;;;;;;5056441;28;20029;-82
2022/07/14 14:50:45;;;;;;;1.10;0.70;;;28.80;46.00;;;;;;5056095;28;20036;-83
2022/07/14 14:53:11;;;;;;;1.05;0.70;;;28.80;46.00;;;;;;5037043;28;20025;-82
2022/07/14 14:55:37;;;;;;;1.23;0.70;;;28.80;46.00;;;;;;5049851;28;20056;-82
2022/07/14 14:58:03;;;;;;;1.67;0.80;;;28.80;46.00;;;;;;5057632;28;20372;-84
2022/07/14 15:00:29;;;;;;;0.82;0.80;;;28.90;46.10;;;;;;5080645;28;20058;-82
2022/07/14 15:02:55;;;;;;;1.65;0.90;;;28.80;46.00;;;;;;5052423;28;20033;-82
2022/07/14 15:05:20;;;;;;;1.73;0.73;;;28.90;46.00;;;;;;5052314;28;20041;-82